Time;durP1;ratioP1;P1;durP2;ratioP2;P2;SDS_P1;SDS_P2;PMS_P1;PMS_P2;Temp;Humidity;BMP_temperature;BMP_pressure;BME280_temperature;BME280_humidity;BME280_pressure;Samples;Min_cycle;Max_cycle;Signal;HPM_P1;HPM_P2
2023/02/01 00:00:09;;;;;;;0.10;0.10;;;;;;;8.13;64.81;101777.25;7355747;19;20382;-57
2023/02/01 00:02:39;;;;;;;0.10;0.10;;;;;;;8.05;64.94;101772.88;7366425;19;20466;-57
2023/02/01 00:05:05;;;;;;;0.10;0.10;;;;;;;8.08;64.67;101772.03;7360018;19;20560;-58
2023/02/01 00:07:30;;;;;;;0.10;0.10;;;;;;;7.92;64.89;101750.28;7365273;19;20073;-57
2023/02/01 00:09:56;;;;;;;0.00;0.00;;;;;;;7.78;64.82;101726.81;7357841;19;20028;-58
2023/02/01 00:12:21;;;;;;;0.00;0.00;;;;;;;7.95;65.13;101752.03;7367133;19;21045;-58
2023/02/01 00:14:48;;;;;;;0.00;0.00;;;;;;;8.01;65.41;101762.47;7359486;19;20017;-56
2023/02/01 00:17:13;;;;;;;0.08;0.08;;;;;;;7.99;64.77;101756.38;7364087;19;20003;-58
2023/02/01 00:19:39;;;;;;;0.00;0.00;;;;;;;8.00;64.87;101758.97;7361493;19;20018;-57
2023/02/01 00:22:04;;;;;;;0.10;0.10;;;;;;;8.02;65.12;101775.47;7363828;19;20002;-58
2023/02/01 00:24:30;;;;;;;0.10;0.10;;;;;;;8.02;65.33;101767.69;7359817;19;20017;-56
2023/02/01 00:26:55;;;;;;;0.03;0.03;;;;;;;7.97;65.24;101766.78;7363630;19;20454;-58
2023/02/01 00:29:21;;;;;;;0.00;0.00;;;;;;;8.02;65.33;101766.81;7360520;19;20479;-58
2023/02/01 00:31:49;;;;;;;0.00;0.00;;;;;;;7.97;65.54;101764.19;7362745;19;20015;-58
2023/02/01 00:34:16;;;;;;;0.00;0.00;;;;;;;7.90;65.64;101748.53;7363445;19;20010;-58
2023/02/01 00:36:43;;;;;;;0.10;0.10;;;;;;;7.98;66.03;101765.91;7361561;19;20030;-57
2023/02/01 00:39:09;;;;;;;0.10;0.10;;;;;;;7.96;66.09;101762.44;7362422;19;20478;-59
2023/02/01 00:41:34;;;;;;;0.05;0.05;;;;;;;7.89;65.78;101734.66;7361655;19;20497;-57
2023/02/01 00:44:01;;;;;;;0.00;0.00;;;;;;;7.94;65.75;101752.88;7362634;19;20054;-57
2023/02/01 00:46:26;;;;;;;0.10;0.10;;;;;;;7.94;65.93;101753.75;7362847;19;20010;-58
2023/02/01 00:48:52;;;;;;;0.00;0.00;;;;;;;8.06;66.17;101768.56;7363317;19;20011;-58
2023/02/01 00:51:23;;;;;;;0.10;0.10;;;;;;;8.09;65.66;101778.97;7362699;19;20031;-56
2023/02/01 00:53:49;;;;;;;0.05;0.05;;;;;;;8.11;65.50;101771.16;7363928;19;20010;-57
2023/02/01 00:56:15;;;;;;;0.00;0.00;;;;;;;8.11;65.73;101758.16;7363611;19;20482;-58
2023/02/01 00:58:41;;;;;;;0.05;0.05;;;;;;;7.96;65.66;101743.38;7361462;19;20014;-58
2023/02/01 01:01:25;;;;;;;0.00;0.00;;;;;;;8.11;65.51;101765.97;7363185;19;20023;-58
2023/02/01 01:03:55;;;;;;;0.00;0.00;;;;;;;8.02;65.52;101766.81;7359527;19;20014;-57
2023/02/01 01:06:23;;;;;;;0.00;0.00;;;;;;;7.90;65.67;101732.91;7361406;19;20097;-58
2023/02/01 01:08:52;;;;;;;0.00;0.00;;;;;;;8.04;65.80;101781.56;7358736;19;20036;-57
2023/02/01 01:11:20;;;;;;;0.10;0.10;;;;;;;8.02;65.49;101770.28;7361562;19;20021;-58
2023/02/01 01:13:50;;;;;;;0.00;0.00;;;;;;;7.95;65.64;101760.69;7362608;19;20010;-58
2023/02/01 01:16:17;;;;;;;0.00;0.00;;;;;;;8.01;65.54;101734.72;7359784;19;20416;-58
2023/02/01 01:18:43;;;;;;;0.00;0.00;;;;;;;8.01;66.03;101765.09;7361049;19;20094;-56
2023/02/01 01:21:11;;;;;;;0.00;0.00;;;;;;;7.99;66.21;101754.66;7362590;19;20675;-57
2023/02/01 01:23:36;;;;;;;0.00;0.00;;;;;;;7.72;65.97;101720.72;7356772;19;20580;-58
2023/02/01 01:26:08;;;;;;;0.10;0.10;;;;;;;7.85;65.58;101738.09;7358685;19;20010;-58
2023/02/01 01:28:34;;;;;;;0.10;0.10;;;;;;;7.94;65.37;101751.16;7362469;19;20093;-58
2023/02/01 01:30:59;;;;;;;0.00;0.00;;;;;;;7.96;65.86;101759.84;7362043;19;20086;-58
2023/02/01 01:33:25;;;;;;;0.00;0.00;;;;;;;7.91;65.77;101745.97;7360812;19;20378;-56
2023/02/01 01:35:50;;;;;;;0.10;0.10;;;;;;;7.93;65.70;101752.03;7357660;19;20018;-57
2023/02/01 01:38:15;;;;;;;0.00;0.00;;;;;;;7.79;66.07;101730.28;7361184;19;20007;-57
2023/02/01 01:40:45;;;;;;;0.10;0.10;;;;;;;7.95;65.96;101760.69;7362578;19;20015;-58
2023/02/01 01:43:17;;;;;;;0.10;0.10;;;;;;;7.80;66.21;101729.41;7357134;19;20366;-57
2023/02/01 01:45:43;;;;;;;0.10;0.10;;;;;;;7.85;66.17;101738.09;7355464;19;20015;-58
2023/02/01 01:48:27;;;;;;;0.00;0.00;;;;;;;7.99;66.15;101757.25;7359534;19;20034;-57
2023/02/01 01:51:06;;;;;;;0.00;0.00;;;;;;;7.90;66.00;101718.19;7358103;19;20014;-58
2023/02/01 01:53:38;;;;;;;0.10;0.10;;;;;;;8.01;66.56;101745.13;7358445;19;20358;-57
2023/02/01 01:56:04;;;;;;;0.10;0.10;;;;;;;8.00;65.98;101730.38;7356371;19;20332;-57
2023/02/01 01:58:33;;;;;;;0.00;0.00;;;;;;;7.86;66.23;101716.47;7358819;19;20011;-58
2023/02/01 02:00:58;;;;;;;0.00;0.00;;;;;;;7.90;66.31;101725.97;7359253;19;20014;-58
2023/02/01 02:03:44;;;;;;;0.00;0.00;;;;;;;7.84;65.76;101702.56;7361014;19;20012;-58
2023/02/01 02:06:17;;;;;;;0.00;0.00;;;;;;;7.82;66.36;101696.50;7337481;19;20077;-57
2023/02/01 02:08:42;;;;;;;0.00;0.00;;;;;;;7.77;66.00;101687.81;7360731;19;20362;-58
2023/02/01 02:11:09;;;;;;;0.00;0.00;;;;;;;7.89;66.49;101708.66;7355079;19;20011;-57
2023/02/01 02:13:37;;;;;;;0.00;0.00;;;;;;;7.85;66.46;101701.69;7361494;19;20010;-58
2023/02/01 02:16:17;;;;;;;0.10;0.10;;;;;;;7.92;66.25;101724.28;7355263;19;20074;-57
2023/02/01 02:18:57;;;;;;;0.03;0.03;;;;;;;7.89;66.88;101711.25;7359832;19;20014;-57
2023/02/01 02:21:41;;;;;;;0.00;0.00;;;;;;;7.87;66.65;101714.72;7357720;19;20002;-58
2023/02/01 02:24:27;;;;;;;0.00;0.00;;;;;;;7.87;66.86;101719.94;7360341;19;20018;-58
2023/02/01 02:27:02;;;;;;;0.00;0.00;;;;;;;7.86;66.52;101720.78;7357893;19;20383;-58
2023/02/01 02:29:33;;;;;;;0.08;0.08;;;;;;;7.85;67.15;101719.91;7359881;19;21008;-57
2023/02/01 02:32:11;;;;;;;0.03;0.03;;;;;;;7.83;67.15;101719.03;7360248;19;20007;-56
2023/02/01 02:34:57;;;;;;;0.00;0.00;;;;;;;7.82;67.07;101722.50;7358585;19;20039;-55
2023/02/01 02:37:29;;;;;;;0.00;0.00;;;;;;;7.81;67.11;101715.56;7359453;19;20036;-57
2023/02/01 02:40:06;;;;;;;0.00;0.00;;;;;;;7.82;67.22;101725.09;7359808;19;20013;-57
2023/02/01 02:48:42;;;;;;;0.00;0.00;;;;;;;7.76;67.26;101722.47;7366619;19;20023;-58
2023/02/01 03:05:11;;;;;;;0.10;0.10;;;;;;;7.67;67.85;101693.81;7364332;19;20038;-58
2023/02/01 03:07:54;;;;;;;0.10;0.10;;;;;;;7.65;67.51;101699.00;7363637;19;20178;-58
2023/02/01 03:10:32;;;;;;;0.10;0.10;;;;;;;7.62;68.01;101680.78;7363804;19;20107;-58
2023/02/01 03:13:16;;;;;;;0.00;0.00;;;;;;;7.47;67.79;101668.59;7363392;19;20050;-58
2023/02/01 03:15:53;;;;;;;0.10;0.10;;;;;;;7.60;68.28;101689.44;7353892;19;20834;-56
2023/02/01 03:18:23;;;;;;;;;;;;;;;7.59;67.93;101682.50;7364726;19;20709;-57
2023/02/01 03:20:52;;;;;;;0.10;0.10;;;;;;;7.48;68.32;101678.13;7362241;19;20010;-57
2023/02/01 03:23:22;;;;;;;0.00;0.00;;;;;;;7.47;68.52;101670.31;7364029;19;20010;-56
2023/02/01 03:25:51;;;;;;;0.10;0.10;;;;;;;7.40;68.42;101656.44;7363108;19;20441;-57
2023/02/01 03:28:20;;;;;;;0.00;0.00;;;;;;;7.52;68.47;101677.28;7360571;19;20015;-58
2023/02/01 03:30:46;;;;;;;0.00;0.00;;;;;;;7.51;68.76;101701.53;7367779;19;20019;-56
2023/02/01 03:33:23;;;;;;;0.00;0.00;;;;;;;7.38;68.41;101680.66;7360724;19;20016;-57
2023/02/01 03:36:16;;;;;;;0.10;0.10;;;;;;;7.54;68.62;101696.34;7362425;19;20006;-58
2023/02/01 03:38:47;;;;;;;0.05;0.05;;;;;;;7.56;69.09;101704.16;7254173;19;2004310;-57
2023/02/01 03:41:31;;;;;;;0.00;0.00;;;;;;;7.56;68.83;101698.09;7364179;19;20106;-58
2023/02/01 03:44:00;;;;;;;0.10;0.10;;;;;;;7.56;69.40;101687.69;7363623;19;20017;-56
2023/02/01 03:46:35;;;;;;;0.00;0.00;;;;;;;7.57;69.08;101684.25;7362743;19;20605;-57
2023/02/01 03:49:07;;;;;;;0.00;0.00;;;;;;;7.53;69.35;101679.00;7360387;19;20753;-57
2023/02/01 03:51:35;;;;;;;0.00;0.00;;;;;;;7.56;69.48;101677.31;7363367;19;20017;-58
2023/02/01 03:54:03;;;;;;;0.00;0.00;;;;;;;7.48;69.21;101659.91;7359377;19;20067;-58
2023/02/01 03:56:29;;;;;;;0.10;0.10;;;;;;;7.57;69.29;101648.72;7364716;19;20036;-57
2023/02/01 03:58:58;;;;;;;0.00;0.00;;;;;;;7.54;69.54;101670.34;7361125;19;20048;-57
2023/02/01 04:01:28;;;;;;;0.00;0.00;;;;;;;7.53;69.08;101647.81;7362844;19;20448;-58
2023/02/01 04:03:54;;;;;;;0.10;0.10;;;;;;;7.59;69.57;101656.50;7344116;19;20026;-57
2023/02/01 04:06:20;;;;;;;0.00;0.00;;;;;;;7.43;69.70;101614.84;7354322;19;20013;-58
2023/02/01 04:08:46;;;;;;;0.10;0.10;;;;;;;7.18;69.38;101568.81;7360115;19;20026;-57
2023/02/01 04:11:11;;;;;;;0.10;0.10;;;;;;;7.64;69.71;101647.00;7363789;19;20012;-58
2023/02/01 04:13:37;;;;;;;0.10;0.10;;;;;;;7.66;69.69;101632.31;7361942;19;20034;-58
2023/02/01 04:16:02;;;;;;;0.00;0.00;;;;;;;7.70;69.49;101626.22;7361498;19;20010;-58
2023/02/01 04:18:28;;;;;;;0.00;0.00;;;;;;;7.72;69.92;101634.91;7360796;19;20749;-58
2023/02/01 04:20:53;;;;;;;0.00;0.00;;;;;;;7.76;69.57;101640.13;7347606;19;20039;-59
2023/02/01 04:23:18;;;;;;;0.05;0.05;;;;;;;7.77;69.84;101622.81;7363470;19;20017;-58
2023/02/01 04:25:44;;;;;;;0.00;0.00;;;;;;;7.85;69.72;101623.69;7361781;19;20484;-58
2023/02/01 04:28:09;;;;;;;0.00;0.00;;;;;;;7.89;69.52;101619.38;7362813;19;20040;-58
2023/02/01 04:30:35;;;;;;;0.00;0.00;;;;;;;7.91;69.68;101618.53;7359455;19;20012;-58
2023/02/01 04:33:00;;;;;;;0.00;0.00;;;;;;;7.87;69.52;101621.97;7361082;19;20003;-58
2023/02/01 04:35:26;;;;;;;0.00;0.00;;;;;;;7.89;69.49;101633.22;7362625;19;20018;-58
2023/02/01 04:37:51;;;;;;;0.00;0.00;;;;;;;7.93;69.21;101632.38;7362788;19;20538;-58
2023/02/01 04:40:16;;;;;;;0.00;0.00;;;;;;;7.96;69.24;101635.00;7363206;19;20014;-58
2023/02/01 04:42:42;;;;;;;0.10;0.10;;;;;;;7.99;69.08;101627.19;7365490;19;20040;-58
2023/02/01 04:45:08;;;;;;;0.00;0.00;;;;;;;8.01;69.26;101637.63;7361721;19;20006;-57
2023/02/01 04:47:34;;;;;;;0.10;0.10;;;;;;;7.99;69.07;101624.59;7363023;19;20010;-57
2023/02/01 04:50:00;;;;;;;0.03;0.03;;;;;;;7.94;69.12;101621.13;7362082;19;20842;-58
2023/02/01 04:52:27;;;;;;;0.00;0.00;;;;;;;8.03;68.96;101644.56;7362292;19;20425;-55
2023/02/01 04:54:54;;;;;;;0.00;0.00;;;;;;;8.02;69.10;101627.22;7358333;19;20017;-58
2023/02/01 04:57:19;;;;;;;0.00;0.00;;;;;;;8.03;68.87;101618.53;7361258;19;20022;-58
2023/02/01 04:59:45;;;;;;;0.10;0.10;;;;;;;7.98;69.07;101609.84;7362592;19;20645;-58
2023/02/01 05:02:10;;;;;;;0.10;0.10;;;;;;;7.90;68.77;101602.88;7359392;19;20033;-57
2023/02/01 05:04:36;;;;;;;0.10;0.10;;;;;;;7.77;68.67;101576.00;7362309;19;20681;-57
2023/02/01 05:07:01;;;;;;;0.00;0.00;;;;;;;8.06;68.75;101638.50;7357773;19;20022;-58
2023/02/01 05:09:27;;;;;;;0.00;0.00;;;;;;;8.07;68.54;101638.50;7361618;19;20011;-56
2023/02/01 05:14:36;;;;;;;0.00;0.00;;;;;;;7.91;68.47;101615.91;7362626;19;20017;-58
2023/02/01 05:17:01;;;;;;;0.00;0.00;;;;;;;8.02;68.66;101648.03;7361460;19;20014;-57
2023/02/01 05:19:27;;;;;;;0.00;0.00;;;;;;;8.07;68.29;101648.91;7358028;19;20059;-57
2023/02/01 05:21:52;;;;;;;0.08;0.08;;;;;;;8.04;68.41;101651.47;7362034;19;20585;-58
2023/02/01 05:24:20;;;;;;;0.00;0.00;;;;;;;7.90;68.34;101627.16;7361639;19;20006;-58
2023/02/01 05:26:47;;;;;;;0.00;0.00;;;;;;;8.10;68.23;101667.97;7361951;19;20014;-58
2023/02/01 05:29:13;;;;;;;0.00;0.00;;;;;;;7.80;68.38;101621.06;7362387;19;20551;-57
2023/02/01 05:31:39;;;;;;;0.00;0.00;;;;;;;8.11;68.46;101673.22;7362942;19;20021;-58
2023/02/01 05:34:04;;;;;;;0.00;0.00;;;;;;;8.11;67.94;101678.41;7359044;19;20674;-57
2023/02/01 05:36:30;;;;;;;0.00;0.00;;;;;;;7.89;68.21;101630.63;7361473;19;20010;-58
2023/02/01 05:38:56;;;;;;;0.00;0.00;;;;;;;8.11;68.18;101647.19;7360969;19;20109;-58
2023/02/01 05:41:21;;;;;;;0.00;0.00;;;;;;;8.11;68.03;101667.09;7357910;19;20014;-58
2023/02/01 05:43:47;;;;;;;0.03;0.03;;;;;;;8.06;68.33;101665.38;7363573;19;20030;-58
2023/02/01 05:46:12;;;;;;;0.10;0.10;;;;;;;7.94;68.16;101649.72;7359139;19;20805;-58
2023/02/01 05:48:42;;;;;;;0.10;0.10;;;;;;;8.12;68.45;101668.88;7356619;19;20082;-58
2023/02/01 05:51:09;;;;;;;0.10;0.10;;;;;;;8.07;68.35;101659.31;7361718;19;20585;-58
2023/02/01 05:53:35;;;;;;;0.00;0.00;;;;;;;8.08;68.00;101660.19;7360657;19;20685;-58
2023/02/01 05:56:01;;;;;;;0.00;0.00;;;;;;;8.03;68.05;101654.09;7360020;19;20018;-59
2023/02/01 05:58:27;;;;;;;0.10;0.10;;;;;;;8.01;68.23;101645.44;7357316;19;20017;-57
2023/02/01 06:00:52;;;;;;;0.00;0.00;;;;;;;8.00;68.35;101652.34;7357634;19;20509;-58
2023/02/01 06:03:18;;;;;;;0.00;0.00;;;;;;;8.06;68.51;101660.19;7357779;19;20018;-55
2023/02/01 06:05:44;;;;;;;0.00;0.00;;;;;;;8.04;68.13;101656.69;7361872;19;20468;-58
2023/02/01 06:08:10;;;;;;;0.00;0.00;;;;;;;8.06;68.56;101665.38;7343670;19;20783;-57
2023/02/01 06:10:35;;;;;;;0.00;0.00;;;;;;;7.96;68.56;101648.00;7359036;19;20019;-58
2023/02/01 06:13:02;;;;;;;0.00;0.00;;;;;;;7.87;68.53;101632.38;7354569;19;20052;-58
2023/02/01 06:15:28;;;;;;;0.03;0.03;;;;;;;7.99;68.23;101645.41;7360014;19;20013;-58
2023/02/01 06:17:54;;;;;;;0.00;0.00;;;;;;;8.02;68.63;101653.22;7360674;19;20516;-58
2023/02/01 06:20:20;;;;;;;0.05;0.05;;;;;;;8.02;68.30;101663.63;7356961;19;20768;-58
2023/02/01 06:22:45;;;;;;;0.00;0.00;;;;;;;8.07;68.45;101659.31;7360180;19;20872;-58
2023/02/01 06:25:11;;;;;;;0.10;0.10;;;;;;;8.02;68.39;101652.34;7361311;19;20041;-58
2023/02/01 06:27:37;;;;;;;0.05;0.05;;;;;;;8.04;68.64;101651.47;7361563;19;20675;-58
2023/02/01 06:30:04;;;;;;;0.08;0.08;;;;;;;7.98;68.80;101635.88;7360499;19;20018;-58
2023/02/01 06:32:29;;;;;;;0.00;0.00;;;;;;;8.00;68.41;101641.94;7359326;19;20007;-57
2023/02/01 06:34:55;;;;;;;0.03;0.03;;;;;;;8.01;68.68;101640.22;7359409;19;20041;-58
2023/02/01 06:37:22;;;;;;;0.00;0.00;;;;;;;8.10;68.58;101644.56;7360759;19;20018;-57
2023/02/01 06:39:48;;;;;;;0.10;0.10;;;;;;;8.05;68.69;101640.22;7358175;19;20071;-57
2023/02/01 06:42:13;;;;;;;0.00;0.00;;;;;;;8.09;68.67;101628.09;7360235;19;20014;-57
2023/02/01 06:44:39;;;;;;;0.10;0.10;;;;;;;8.07;68.81;101646.31;7360570;19;20669;-58
2023/02/01 06:47:04;;;;;;;0.00;0.00;;;;;;;8.01;68.90;101635.03;7359765;19;20022;-56
2023/02/01 06:49:30;;;;;;;0.10;0.10;;;;;;;8.15;69.13;101654.13;7359682;19;20027;-58
2023/02/01 06:51:55;;;;;;;0.10;0.10;;;;;;;8.04;69.33;101620.28;7358572;19;20017;-58
2023/02/01 06:54:21;;;;;;;0.05;0.05;;;;;;;8.01;69.33;101625.50;7361277;19;20891;-57
2023/02/01 06:56:46;;;;;;;0.00;0.00;;;;;;;8.19;69.34;101649.78;7359008;19;20082;-58
2023/02/01 06:59:12;;;;;;;0.10;0.10;;;;;;;8.15;69.19;101638.50;7350410;19;20066;-58
2023/02/01 07:01:37;;;;;;;0.00;0.00;;;;;;;8.21;69.35;101643.75;7356342;19;20501;-57
2023/02/01 07:04:03;;;;;;;0.10;0.10;;;;;;;8.24;69.34;101635.06;7358897;19;20006;-58
2023/02/01 07:06:28;;;;;;;0.08;0.08;;;;;;;8.28;69.43;101644.63;7358040;19;20034;-58
2023/02/01 07:08:57;;;;;;;0.00;0.00;;;;;;;8.27;69.27;101637.69;7359336;19;20026;-57
2023/02/01 07:11:23;;;;;;;0.00;0.00;;;;;;;8.33;69.65;101654.16;7356962;19;20021;-58
2023/02/01 07:13:49;;;;;;;0.00;0.00;;;;;;;8.31;69.48;101648.09;7357905;19;20041;-58
2023/02/01 07:16:18;;;;;;;0.10;0.10;;;;;;;8.35;69.08;101641.16;7356349;19;20025;-58
2023/02/01 07:18:44;;;;;;;0.10;0.10;;;;;;;8.27;69.40;101635.94;7357229;19;20022;-58
2023/02/01 07:21:09;;;;;;;0.10;0.10;;;;;;;8.30;69.29;101641.13;7350372;19;20017;-58
2023/02/01 07:23:35;;;;;;;0.10;0.10;;;;;;;8.30;69.40;101630.72;7357257;19;20011;-59
2023/02/01 07:26:04;;;;;;;0.10;0.10;;;;;;;8.34;69.76;101649.81;7364746;19;20018;-58
2023/02/01 07:28:32;;;;;;;0.00;0.00;;;;;;;8.41;69.53;101656.78;7361652;19;20477;-57
2023/02/01 07:31:11;;;;;;;;;;;;;;;8.44;69.20;101659.41;7363163;19;20098;-57
2023/02/01 07:33:36;;;;;;;0.10;0.10;;;;;;;8.41;69.20;101664.59;7361050;19;19927;-57
2023/02/01 07:36:04;;;;;;;0.10;0.10;;;;;;;8.36;69.09;101663.72;7365642;19;20039;-58
2023/02/01 07:38:30;;;;;;;0.00;0.00;;;;;;;8.40;69.27;101670.69;7362238;19;20404;-58
2023/02/01 07:41:04;;;;;;;0.00;0.00;;;;;;;8.40;69.24;101673.28;7362505;19;21417;-58
2023/02/01 07:43:30;;;;;;;0.10;0.10;;;;;;;8.32;69.21;101651.56;7358753;19;20073;-59
2023/02/01 07:45:56;;;;;;;0.05;0.05;;;;;;;8.33;69.63;101668.91;7344102;19;20519;-56
2023/02/01 07:48:23;;;;;;;0.10;0.10;;;;;;;8.38;69.45;101672.44;7362845;19;20755;-58
2023/02/01 07:50:56;;;;;;;0.10;0.10;;;;;;;8.22;69.73;101655.03;7365847;19;20048;-57
2023/02/01 07:53:21;;;;;;;0.00;0.00;;;;;;;8.34;69.38;101681.06;7356978;19;20022;-57
2023/02/01 07:55:47;;;;;;;0.10;0.10;;;;;;;8.32;69.23;101690.59;7366722;19;20018;-58
2023/02/01 07:58:13;;;;;;;0.10;0.10;;;;;;;8.33;69.38;101694.94;7357852;19;20082;-56
2023/02/01 08:03:22;;;;;;;0.00;0.00;;;;;;;8.14;69.42;101670.59;7360049;19;20025;-58
2023/02/01 08:05:48;;;;;;;0.00;0.00;;;;;;;8.28;69.64;101691.47;7360940;19;20442;-58
2023/02/01 08:08:13;;;;;;;0.10;0.10;;;;;;;8.35;69.58;101705.34;7363908;19;20018;-58
2023/02/01 08:10:38;;;;;;;0.00;0.00;;;;;;;8.36;69.87;101707.06;7363840;19;20028;-57
2023/02/01 08:13:04;;;;;;;0.00;0.00;;;;;;;8.37;69.67;101696.72;7358580;19;20014;-58
2023/02/01 08:15:30;;;;;;;0.00;0.00;;;;;;;8.33;69.99;101705.34;7363273;19;20032;-58
2023/02/01 08:17:55;;;;;;;0.00;0.00;;;;;;;8.42;70.11;101731.44;7364930;19;20014;-58
2023/02/01 08:20:28;;;;;;;0.00;0.00;;;;;;;8.35;69.71;101714.00;7363488;19;20304;-57
2023/02/01 08:22:54;;;;;;;0.00;0.00;;;;;;;8.42;69.89;101714.97;7358461;19;20524;-57
2023/02/01 08:25:20;;;;;;;0.00;0.00;;;;;;;8.40;69.86;101716.66;7363293;19;20039;-59
2023/02/01 08:27:45;;;;;;;0.05;0.05;;;;;;;8.35;69.91;101714.00;7363924;19;20014;-58
2023/02/01 08:30:12;;;;;;;0.10;0.10;;;;;;;8.47;70.12;101732.31;7364053;19;20014;-58
2023/02/01 08:32:37;;;;;;;0.00;0.00;;;;;;;8.34;69.73;101712.28;7360756;19;20011;-58
2023/02/01 08:35:06;;;;;;;0.10;0.10;;;;;;;8.49;70.07;101741.00;7362572;19;20646;-58
2023/02/01 08:37:32;;;;;;;0.00;0.00;;;;;;;8.53;70.09;101753.16;7362610;19;20011;-57
2023/02/01 08:39:57;;;;;;;0.10;0.10;;;;;;;8.50;70.27;101740.13;7362790;19;20002;-58
2023/02/01 08:45:08;;;;;;;0.10;0.10;;;;;;;8.64;70.31;101752.31;7360504;19;20021;-57
2023/02/01 08:47:34;;;;;;;0.10;0.10;;;;;;;8.73;70.48;101736.72;7355168;19;20033;-58
2023/02/01 08:50:00;;;;;;;0.10;0.10;;;;;;;8.78;70.48;101755.81;7362246;19;20017;-58
2023/02/01 08:52:25;;;;;;;0.03;0.03;;;;;;;8.67;70.26;101734.97;7363923;19;20011;-58
2023/02/01 08:54:51;;;;;;;0.00;0.00;;;;;;;8.92;70.35;101758.41;7362919;19;20018;-58
2023/02/01 08:57:16;;;;;;;0.10;0.10;;;;;;;8.88;70.18;101736.72;7361102;19;20010;-58
2023/02/01 08:59:43;;;;;;;0.10;0.10;;;;;;;9.00;70.14;101747.13;7362013;19;20434;-57
2023/02/01 09:02:13;;;;;;;0.00;0.00;;;;;;;9.09;70.32;101768.00;7360892;19;20029;-57
2023/02/01 09:04:40;;;;;;;0.10;0.10;;;;;;;9.08;69.95;101753.25;7358763;19;20587;-58
2023/02/01 09:07:05;;;;;;;0.00;0.00;;;;;;;9.18;70.06;101771.50;7360763;19;20006;-58
2023/02/01 09:09:31;;;;;;;0.00;0.00;;;;;;;9.21;70.10;101761.91;7360802;19;20030;-59
2023/02/01 09:11:56;;;;;;;0.10;0.10;;;;;;;9.17;69.91;101749.75;7363029;19;20018;-58
2023/02/01 09:14:21;;;;;;;0.00;0.00;;;;;;;9.32;69.77;101764.50;7361023;19;20796;-58
2023/02/01 09:16:47;;;;;;;0.00;0.00;;;;;;;9.35;69.60;101772.34;7361526;19;20117;-57
2023/02/01 09:19:12;;;;;;;0.00;0.00;;;;;;;9.31;69.60;101747.13;7360763;19;20053;-58
2023/02/01 09:21:38;;;;;;;0.00;0.00;;;;;;;9.51;69.97;101768.84;7360121;19;20679;-58
2023/02/01 09:24:03;;;;;;;0.00;0.00;;;;;;;9.56;69.36;101785.34;7361546;19;20047;-58
2023/02/01 09:26:29;;;;;;;0.00;0.00;;;;;;;9.64;69.68;101787.09;7360704;19;20017;-58
2023/02/01 09:28:55;;;;;;;0.00;0.00;;;;;;;9.76;69.64;101767.06;7362621;19;23124;-58
2023/02/01 09:31:20;;;;;;;0.03;0.03;;;;;;;9.88;69.30;101782.69;7356926;19;20013;-59
2023/02/01 09:33:46;;;;;;;0.00;0.00;;;;;;;9.98;68.96;101788.75;7362226;19;20669;-59
2023/02/01 09:36:11;;;;;;;0.10;0.10;;;;;;;10.09;69.10;101786.13;7361846;19;20031;-58
2023/02/01 09:38:37;;;;;;;0.00;0.00;;;;;;;10.21;68.96;101785.19;7357898;19;20478;-58
2023/02/01 09:41:17;;;;;;;0.00;0.00;;;;;;;10.36;68.54;101791.25;7352088;19;20011;-57
2023/02/01 09:44:16;;;;;;;0.10;0.10;;;;;;;10.49;68.54;101785.97;7362097;19;20007;-58
2023/02/01 09:46:42;;;;;;;0.00;0.00;;;;;;;10.42;67.77;101773.81;7257047;19;2004038;-58
2023/02/01 09:49:17;;;;;;;0.10;0.10;;;;;;;10.58;67.11;101786.78;7357594;19;20804;-58
2023/02/01 09:51:48;;;;;;;0.00;0.00;;;;;;;10.49;67.12;101781.63;7358107;19;20011;-58
2023/02/01 09:54:26;;;;;;;0.00;0.00;;;;;;;10.55;66.83;101784.22;7357608;19;20018;-55
2023/02/01 09:57:16;;;;;;;0.00;0.00;;;;;;;10.59;66.85;101788.56;7358243;19;20010;-57
2023/02/01 09:59:43;;;;;;;0.00;0.00;;;;;;;10.59;66.99;101796.38;7349814;19;20020;-58
2023/02/01 10:02:19;;;;;;;0.00;0.00;;;;;;;10.57;66.94;101789.41;7359443;19;20019;-59
2023/02/01 10:04:47;;;;;;;0.00;0.00;;;;;;;10.54;67.17;101779.88;7360596;19;20640;-58
2023/02/01 10:07:51;;;;;;;0.00;0.00;;;;;;;10.55;67.21;101773.75;7360091;19;20147;-56
2023/02/01 10:10:34;;;;;;;0.00;0.00;;;;;;;10.51;67.44;101782.47;7258253;19;2004048;-56
2023/02/01 10:13:00;;;;;;;0.00;0.00;;;;;;;10.37;67.53;101760.78;7359202;19;20347;-57
2023/02/01 10:15:46;;;;;;;0.10;0.10;;;;;;;10.53;67.52;101787.69;7359456;19;20011;-59
2023/02/01 10:18:51;;;;;;;0.08;0.08;;;;;;;10.54;67.50;101782.47;7258527;19;2004432;-58
2023/02/01 10:21:22;;;;;;;0.08;0.08;;;;;;;10.58;68.01;101776.34;7257113;19;2004224;-58
2023/02/01 10:24:11;;;;;;;0.00;0.00;;;;;;;10.69;68.11;101776.28;7357052;19;20054;-57
2023/02/01 10:26:42;;;;;;;0.10;0.10;;;;;;;10.88;67.76;101779.66;7359888;19;20006;-58
2023/02/01 10:29:16;;;;;;;0.00;0.00;;;;;;;11.04;68.30;101762.97;7357787;19;20018;-58
2023/02/01 10:31:43;;;;;;;0.00;0.00;;;;;;;11.02;67.69;101762.13;7333820;19;20011;-57
2023/02/01 10:34:29;;;;;;;0.00;0.00;;;;;;;11.40;67.24;101777.53;7352787;19;20003;-58
2023/02/01 10:36:59;;;;;;;0.00;0.00;;;;;;;11.50;66.11;101769.56;7251169;19;2004521;-57
2023/02/01 10:39:25;;;;;;;0.00;0.00;;;;;;;11.48;65.56;101766.97;7357986;19;20014;-59
2023/02/01 10:41:50;;;;;;;0.00;0.00;;;;;;;11.52;65.72;101763.44;7361882;19;20332;-58
2023/02/01 10:44:23;;;;;;;0.00;0.00;;;;;;;11.64;65.25;101741.53;7356274;19;20102;-58
2023/02/01 10:46:50;;;;;;;0.03;0.03;;;;;;;11.76;64.77;101777.16;7355514;19;20019;-59
2023/02/01 10:49:26;;;;;;;0.00;0.00;;;;;;;11.88;64.90;101775.31;7357744;19;20023;-57
2023/02/01 10:51:58;;;;;;;0.00;0.00;;;;;;;11.92;64.61;101784.00;7354172;19;20014;-58
2023/02/01 10:54:38;;;;;;;0.00;0.00;;;;;;;12.04;64.64;101783.88;7358100;19;20014;-59
2023/02/01 10:57:07;;;;;;;0.00;0.00;;;;;;;12.18;64.47;101794.19;7356998;19;20498;-58
2023/02/01 10:59:36;;;;;;;0.10;0.10;;;;;;;12.22;63.52;101801.13;7359693;19;20018;-58
2023/02/01 11:02:23;;;;;;;0.00;0.00;;;;;;;12.29;63.67;101783.56;7366750;19;20015;-58
2023/02/01 11:04:49;;;;;;;0.00;0.00;;;;;;;12.35;63.09;101810.56;7365069;19;20019;-57
2023/02/01 11:07:24;;;;;;;0.03;0.03;;;;;;;12.40;63.00;101816.59;7363979;19;20022;-58
2023/02/01 11:09:54;;;;;;;0.00;0.00;;;;;;;12.38;63.15;101822.75;7366463;19;20569;-58
2023/02/01 11:12:30;;;;;;;0.00;0.00;;;;;;;12.40;62.96;101816.59;7362233;19;20019;-58
2023/02/01 11:15:11;;;;;;;0.00;0.00;;;;;;;12.38;62.86;101820.13;7352752;19;20007;-58
2023/02/01 11:17:42;;;;;;;0.10;0.10;;;;;;;12.33;62.50;101811.47;7364032;19;20021;-58
2023/02/01 11:20:16;;;;;;;0.00;0.00;;;;;;;12.32;62.59;101804.50;7366971;19;20045;-57
2023/02/01 11:22:52;;;;;;;0.10;0.10;;;;;;;12.28;62.46;101818.50;7366028;19;20749;-58
2023/02/01 11:25:18;;;;;;;0.03;0.03;;;;;;;12.22;62.77;101798.50;7366872;19;20104;-58
2023/02/01 11:27:44;;;;;;;0.00;0.00;;;;;;;12.19;62.69;101799.41;7366252;19;20011;-58
2023/02/01 11:30:16;;;;;;;0.00;0.00;;;;;;;12.30;63.01;101807.13;7366763;19;20018;-59
2023/02/01 11:32:42;;;;;;;0.00;0.00;;;;;;;12.28;62.96;101794.94;7365033;19;20017;-58
2023/02/01 11:35:15;;;;;;;0.00;0.00;;;;;;;12.29;62.55;101800.16;7364717;19;20014;-58
2023/02/01 11:37:43;;;;;;;0.00;0.00;;;;;;;12.23;62.47;101795.00;7363607;19;20856;-58
2023/02/01 11:40:17;;;;;;;0.10;0.10;;;;;;;12.30;62.95;101790.53;7365434;19;20734;-58
2023/02/01 11:43:00;;;;;;;0.00;0.00;;;;;;;12.26;62.57;101783.59;7365277;19;20013;-59
2023/02/01 11:45:33;;;;;;;0.10;0.10;;;;;;;12.30;62.07;101790.53;7366897;19;20003;-58
2023/02/01 11:48:00;;;;;;;0.10;0.10;;;;;;;12.28;62.18;101794.94;7364981;19;20013;-58
2023/02/01 11:50:36;;;;;;;0.00;0.00;;;;;;;12.31;62.35;101792.25;7366076;19;20025;-58
2023/02/01 11:53:05;;;;;;;0.00;0.00;;;;;;;12.27;62.28;101774.88;7365567;19;20006;-58
2023/02/01 11:56:16;;;;;;;0.00;0.00;;;;;;;12.31;62.58;101787.03;7368395;19;20010;-58
2023/02/01 11:59:33;;;;;;;0.10;0.10;;;;;;;12.30;62.74;101780.94;7262980;19;2004271;-58
2023/02/01 12:02:16;;;;;;;0.10;0.10;;;;;;;12.27;62.17;101782.75;7261189;19;2004397;-56
2023/02/01 12:05:33;;;;;;;0.00;0.00;;;;;;;12.32;62.55;101788.78;7364436;19;20034;-58
2023/02/01 12:08:22;;;;;;;0.00;0.00;;;;;;;12.35;62.41;101788.72;7256446;19;2004366;-58
2023/02/01 12:10:56;;;;;;;0.00;0.00;;;;;;;12.36;62.39;101774.75;7363488;19;20585;-58